Time;durP1;ratioP1;P1;durP2;ratioP2;P2;SDS_P1;SDS_P2;PMS_P1;PMS_P2;Temp;Humidity;BMP_temperature;BMP_pressure;BME280_temperature;BME280_humidity;BME280_pressure;Samples;Min_cycle;Max_cycle;Signal;HPM_P1;HPM_P2
2022/01/15 00:01:43;;;;;;;34.23;16.33;;;2.70;99.90;;;;;;5056775;28;20451;-49
2022/01/15 00:04:09;;;;;;;33.83;17.20;;;2.70;99.90;;;;;;5059859;28;20935;-47
2022/01/15 00:06:35;;;;;;;36.17;18.30;;;2.70;99.90;;;;;;5059506;28;20201;-46
2022/01/15 00:09:01;;;;;;;33.37;16.07;;;2.80;99.90;;;;;;5055513;28;20644;-53
2022/01/15 00:11:27;;;;;;;36.60;17.23;;;2.50;99.90;;;;;;5055103;28;20433;-49
2022/01/15 00:13:57;;;;;;;30.77;15.03;;;2.50;99.90;;;;;;5053144;28;20869;-46
2022/01/15 00:16:44;;;;;;;38.23;17.60;;;2.50;99.90;;;;;;5056486;28;20531;-47
2022/01/15 00:19:12;;;;;;;37.83;15.77;;;2.40;99.90;;;;;;5058100;28;20433;-49
2022/01/15 00:21:37;;;;;;;37.50;16.20;;;2.50;99.90;;;;;;5055481;28;20412;-48
2022/01/15 00:24:03;;;;;;;37.33;16.77;;;2.50;99.90;;;;;;5054109;28;20439;-49
2022/01/15 00:26:29;;;;;;;36.57;17.57;;;2.40;99.90;;;;;;5059306;28;20206;-48
2022/01/15 00:28:55;;;;;;;31.10;16.00;;;2.40;99.90;;;;;;5057747;28;20848;-48
2022/01/15 00:31:21;;;;;;;33.63;16.73;;;2.40;99.90;;;;;;5040668;28;20182;-47
2022/01/15 00:33:46;;;;;;;32.40;17.17;;;2.40;99.90;;;;;;5062316;28;20186;-45
2022/01/15 00:36:12;;;;;;;36.80;18.50;;;2.40;99.90;;;;;;5061707;28;20467;-49
2022/01/15 00:38:38;;;;;;;39.17;18.77;;;2.40;99.90;;;;;;5059947;28;20181;-49
2022/01/15 00:41:03;;;;;;;34.10;17.60;;;2.50;99.90;;;;;;5039856;28;20215;-49
2022/01/15 00:43:29;;;;;;;38.87;18.57;;;2.50;99.90;;;;;;5056621;28;20187;-47
2022/01/15 00:45:58;;;;;;;28.77;16.20;;;2.50;99.90;;;;;;5058166;28;20289;-49
2022/01/15 00:48:24;;;;;;;34.07;16.97;;;2.40;99.90;;;;;;5058559;28;20431;-45
2022/01/15 00:50:50;;;;;;;37.73;17.73;;;2.40;99.90;;;;;;5058791;28;20405;-48
2022/01/15 00:53:16;;;;;;;34.03;16.33;;;2.30;99.90;;;;;;5056214;28;20444;-50
2022/01/15 00:55:42;;;;;;;31.70;16.60;;;2.30;99.90;;;;;;5060021;28;20480;-48
2022/01/15 00:58:08;;;;;;;30.77;16.17;;;2.30;99.90;;;;;;5058638;28;20481;-48
2022/01/15 01:00:34;;;;;;;28.97;17.10;;;2.30;99.90;;;;;;5060461;28;20200;-48
2022/01/15 01:03:00;;;;;;;30.97;16.73;;;2.40;99.90;;;;;;5057869;28;20695;-49
2022/01/15 01:05:26;;;;;;;32.67;17.40;;;2.30;99.90;;;;;;5055665;28;20529;-49
2022/01/15 01:07:52;;;;;;;32.90;16.93;;;2.30;99.90;;;;;;5054282;28;20224;-49
2022/01/15 01:23:25;;;;;;;35.20;19.40;;;2.00;99.90;;;;;;5053625;28;20437;-47
2022/01/15 01:25:57;;;;;;;35.00;18.27;;;2.00;99.90;;;;;;5056343;28;20555;-49
2022/01/15 01:28:34;;;;;;;34.67;18.20;;;2.00;99.90;;;;;;5054715;28;20166;-45
2022/01/15 01:31:07;;;;;;;39.57;18.83;;;2.00;99.90;;;;;;5053094;28;20818;-49
2022/01/15 01:33:37;;;;;;;39.47;19.00;;;2.00;99.90;;;;;;5055408;28;20538;-49
2022/01/15 01:36:12;;;;;;;33.67;17.40;;;2.00;99.90;;;;;;5057607;28;20433;-45
2022/01/15 01:38:46;;;;;;;32.37;16.47;;;1.80;99.90;;;;;;5040609;28;20471;-50
2022/01/15 01:41:17;;;;;;;30.80;18.70;;;1.80;99.90;;;;;;5053151;28;20435;-45
2022/01/15 01:43:54;;;;;;;30.47;17.97;;;1.90;99.90;;;;;;5053306;28;20497;-48
2022/01/15 01:48:49;;;;;;;33.30;16.40;;;1.90;99.90;;;;;;5057319;28;20992;-45
2022/01/15 01:51:25;;;;;;;34.60;17.83;;;1.80;99.90;;;;;;5055665;28;20536;-48
2022/01/15 01:53:52;;;;;;;32.77;16.20;;;1.70;99.90;;;;;;5041893;28;20187;-49
2022/01/15 01:56:19;;;;;;;29.57;17.20;;;1.90;99.90;;;;;;5057781;28;20554;-44
2022/01/15 01:58:46;;;;;;;31.30;16.07;;;1.90;99.90;;;;;;5059974;28;20439;-45
2022/01/15 02:01:12;;;;;;;33.70;16.70;;;1.70;99.90;;;;;;5055686;28;20805;-47
2022/01/15 02:03:37;;;;;;;35.00;17.30;;;1.80;99.90;;;;;;5060826;28;20430;-46
2022/01/15 02:06:04;;;;;;;34.13;17.57;;;1.80;99.90;;;;;;5052995;28;20490;-47
2022/01/15 02:08:33;;;;;;;31.73;16.80;;;1.80;99.90;;;;;;5055592;28;20189;-45
2022/01/15 02:11:02;;;;;;;34.50;15.67;;;1.70;99.90;;;;;;5055683;28;20425;-50
2022/01/15 02:13:28;;;;;;;30.77;15.63;;;1.80;99.90;;;;;;5052348;28;20808;-46
2022/01/15 02:15:59;;;;;;;28.90;15.77;;;2.00;99.90;;;;;;5057068;28;20455;-45
2022/01/15 02:18:26;;;;;;;39.37;18.03;;;1.90;99.90;;;;;;5056273;28;20183;-47
2022/01/15 02:23:44;;;;;;;32.07;16.60;;;2.00;99.90;;;;;;5055085;28;20719;-45
2022/01/15 02:26:24;;;;;;;35.50;18.63;;;1.90;99.90;;;;;;5052353;28;20560;-45
2022/01/15 02:28:59;;;;;;;29.13;17.60;;;1.90;99.90;;;;;;5056146;28;20429;-48
2022/01/15 02:31:26;;;;;;;35.83;17.10;;;1.90;99.90;;;;;;5059673;28;20436;-46
2022/01/15 02:33:54;;;;;;;32.20;17.63;;;2.00;99.90;;;;;;5059320;28;20432;-49
2022/01/15 02:36:29;;;;;;;30.47;18.23;;;2.00;99.90;;;;;;5052864;28;20453;-46
2022/01/15 02:38:55;;;;;;;32.10;16.93;;;2.00;99.90;;;;;;5045335;28;20424;-47
2022/01/15 02:41:27;;;;;;;28.73;16.53;;;2.00;99.90;;;;;;5061876;28;20863;-46
2022/01/15 02:43:53;;;;;;;34.93;17.50;;;2.00;99.90;;;;;;5057506;28;20469;-47
2022/01/15 02:46:20;;;;;;;34.97;17.67;;;1.80;99.90;;;;;;5060523;28;20501;-45
2022/01/15 02:48:51;;;;;;;37.87;17.17;;;1.80;99.90;;;;;;5057370;28;20568;-45
2022/01/15 02:51:19;;;;;;;34.67;17.23;;;1.70;99.90;;;;;;5059527;28;20433;-51
2022/01/15 02:53:46;;;;;;;36.60;17.03;;;1.80;99.90;;;;;;5059250;28;20467;-47
2022/01/15 02:56:12;;;;;;;36.93;18.50;;;1.90;99.90;;;;;;5054654;28;20475;-48
2022/01/15 02:58:38;;;;;;;31.63;16.63;;;2.00;99.90;;;;;;5042067;28;20445;-47
2022/01/15 03:01:06;;;;;;;35.40;18.40;;;1.90;99.90;;;;;;5059710;28;20245;-48
2022/01/15 03:03:32;;;;;;;35.97;18.50;;;1.80;99.90;;;;;;5056743;28;20580;-45
2022/01/15 03:05:58;;;;;;;31.83;17.60;;;1.90;99.90;;;;;;5059894;28;20503;-47
2022/01/15 03:08:24;;;;;;;40.80;19.13;;;2.00;99.90;;;;;;5058499;28;20586;-51
2022/01/15 03:10:49;;;;;;;39.53;18.23;;;1.90;99.90;;;;;;5057940;28;20983;-45
2022/01/15 03:13:15;;;;;;;34.00;18.07;;;2.00;99.90;;;;;;5056779;28;20278;-46
2022/01/15 03:15:41;;;;;;;34.07;18.20;;;1.90;99.90;;;;;;5056154;28;20213;-45
2022/01/15 03:18:07;;;;;;;36.93;17.27;;;2.00;99.90;;;;;;5043382;28;20192;-44
2022/01/15 03:20:32;;;;;;;31.53;17.60;;;2.10;99.90;;;;;;5057639;28;20180;-45
2022/01/15 03:22:58;;;;;;;33.97;19.20;;;2.00;99.90;;;;;;5062076;28;20206;-50
2022/01/15 03:25:24;;;;;;;34.97;19.00;;;2.00;99.90;;;;;;5054696;28;20596;-49
2022/01/15 03:27:50;;;;;;;36.93;18.07;;;1.90;99.90;;;;;;5061436;28;20215;-49
2022/01/15 03:30:16;;;;;;;41.70;18.80;;;1.80;99.90;;;;;;5063399;28;20436;-49
2022/01/15 03:32:43;;;;;;;42.10;19.27;;;1.90;99.90;;;;;;5059463;28;20693;-51
2022/01/15 03:35:15;;;;;;;37.47;19.60;;;1.90;99.90;;;;;;5058014;28;20321;-53
2022/01/15 03:37:41;;;;;;;40.53;19.00;;;2.00;99.90;;;;;;5056951;28;20515;-48
2022/01/15 03:40:09;;;;;;;35.53;20.43;;;1.80;99.90;;;;;;5058761;28;20545;-45
2022/01/15 03:42:35;;;;;;;34.17;19.00;;;1.80;99.90;;;;;;5062146;28;20520;-47
2022/01/15 03:45:01;;;;;;;34.60;19.27;;;1.80;99.90;;;;;;5054408;28;20590;-46
2022/01/15 03:47:26;;;;;;;34.00;19.87;;;1.80;99.90;;;;;;5057442;28;20210;-48
2022/01/15 03:49:52;;;;;;;32.40;20.13;;;1.90;99.90;;;;;;5057184;28;20770;-47
2022/01/15 03:52:17;;;;;;;42.60;20.33;;;1.90;99.90;;;;;;5036013;28;20211;-45
2022/01/15 03:54:43;;;;;;;32.40;20.37;;;1.90;99.90;;;;;;5055429;28;20281;-47
2022/01/15 03:57:09;;;;;;;33.67;18.20;;;1.90;99.90;;;;;;5056362;28;20225;-48
2022/01/15 03:59:34;;;;;;;38.30;21.30;;;1.90;99.90;;;;;;5056014;28;20203;-45
2022/01/15 04:02:00;;;;;;;34.50;19.77;;;2.00;99.90;;;;;;5056117;28;20188;-46
2022/01/15 04:04:25;;;;;;;30.80;19.07;;;1.90;99.90;;;;;;5057315;28;20567;-45
2022/01/15 04:06:51;;;;;;;32.33;20.53;;;1.80;99.90;;;;;;5058472;28;20200;-45
2022/01/15 04:09:17;;;;;;;37.40;20.93;;;1.90;99.90;;;;;;5058493;28;20184;-47
2022/01/15 04:11:44;;;;;;;30.53;20.10;;;1.90;99.90;;;;;;5059256;28;20182;-47
2022/01/15 04:14:10;;;;;;;32.67;19.77;;;1.80;99.90;;;;;;5055937;28;20460;-50
2022/01/15 04:16:35;;;;;;;37.73;20.33;;;1.80;99.90;;;;;;5060779;28;20538;-48
2022/01/15 04:19:03;;;;;;;37.00;20.63;;;1.90;99.90;;;;;;5055780;28;20173;-48
2022/01/15 04:21:29;;;;;;;34.13;18.80;;;1.90;99.90;;;;;;5054299;28;20322;-48
2022/01/15 04:23:54;;;;;;;32.40;20.40;;;1.80;99.90;;;;;;5056552;28;20520;-50
2022/01/15 04:26:25;;;;;;;31.30;19.60;;;1.90;99.90;;;;;;5053451;28;20275;-46
2022/01/15 04:28:52;;;;;;;33.63;19.77;;;1.70;99.90;;;;;;5058144;28;20200;-47
2022/01/15 04:31:18;;;;;;;33.27;19.93;;;1.80;99.90;;;;;;5062643;28;20903;-48
2022/01/15 04:33:44;;;;;;;34.97;19.60;;;1.80;99.90;;;;;;5056422;28;20427;-46
2022/01/15 04:36:10;;;;;;;37.13;21.53;;;1.80;99.90;;;;;;5056466;28;20771;-46
2022/01/15 04:38:38;;;;;;;34.47;20.73;;;1.80;99.90;;;;;;5058327;28;20454;-49
2022/01/15 04:41:04;;;;;;;37.57;20.17;;;1.80;99.90;;;;;;5041001;28;20646;-47
2022/01/15 04:43:30;;;;;;;30.00;18.70;;;1.70;99.90;;;;;;5055659;28;20420;-48
2022/01/15 04:45:56;;;;;;;36.43;18.13;;;1.80;99.90;;;;;;5054695;28;20470;-45
2022/01/15 04:48:21;;;;;;;32.83;19.30;;;1.80;99.90;;;;;;5057179;28;20430;-47
2022/01/15 04:50:47;;;;;;;35.77;19.67;;;1.80;99.90;;;;;;5059500;28;20603;-47
2022/01/15 04:53:13;;;;;;;39.87;19.53;;;1.80;99.90;;;;;;5059390;28;20199;-47
2022/01/15 04:55:39;;;;;;;36.30;21.73;;;1.70;99.90;;;;;;5054600;28;20220;-46
2022/01/15 04:58:06;;;;;;;35.80;19.73;;;1.70;99.90;;;;;;5057490;28;20231;-45
2022/01/15 05:00:33;;;;;;;34.80;19.90;;;1.70;99.90;;;;;;5058583;28;20432;-49
2022/01/15 05:02:58;;;;;;;29.90;19.60;;;1.80;99.90;;;;;;5056042;28;20437;-47
2022/01/15 05:05:25;;;;;;;35.20;19.60;;;1.80;99.90;;;;;;5056978;28;20483;-46
2022/01/15 05:07:54;;;;;;;32.93;20.20;;;1.80;99.90;;;;;;5056244;28;20180;-51
2022/01/15 05:10:23;;;;;;;31.73;18.30;;;1.70;99.90;;;;;;5056717;28;20503;-48
2022/01/15 05:12:50;;;;;;;38.73;19.77;;;1.70;99.90;;;;;;5061486;28;20428;-46
2022/01/15 05:15:18;;;;;;;37.37;20.03;;;1.70;99.90;;;;;;5057099;28;20423;-45
2022/01/15 05:17:45;;;;;;;38.43;19.70;;;1.60;99.90;;;;;;5054431;28;20559;-50
2022/01/15 05:20:12;;;;;;;36.20;20.80;;;1.70;99.90;;;;;;5056069;28;20520;-49
2022/01/15 05:22:38;;;;;;;29.97;19.13;;;1.70;99.90;;;;;;5055892;28;20941;-46
2022/01/15 05:25:07;;;;;;;32.60;20.23;;;1.70;99.90;;;;;;5053273;28;21099;-49
2022/01/15 05:27:36;;;;;;;37.83;20.27;;;1.70;99.90;;;;;;5059267;28;20421;-45
2022/01/15 05:30:04;;;;;;;33.23;20.40;;;1.80;99.90;;;;;;5057116;28;20874;-47
2022/01/15 05:32:30;;;;;;;32.70;19.73;;;1.70;99.90;;;;;;5059135;28;20415;-46
2022/01/15 05:34:57;;;;;;;36.47;20.30;;;1.70;99.90;;;;;;5039715;28;20488;-48
2022/01/15 05:37:23;;;;;;;35.60;19.70;;;1.70;99.90;;;;;;5056119;28;20248;-46
2022/01/15 05:39:49;;;;;;;31.00;18.33;;;1.70;99.90;;;;;;5055023;28;20792;-49
2022/01/15 05:42:15;;;;;;;32.47;18.87;;;1.70;99.90;;;;;;5057122;28;20490;-46
2022/01/15 05:44:41;;;;;;;33.57;19.57;;;1.70;99.90;;;;;;5053231;28;20261;-46
2022/01/15 05:47:07;;;;;;;35.77;19.00;;;1.70;99.90;;;;;;5055661;28;20906;-47
2022/01/15 05:49:33;;;;;;;39.00;19.10;;;1.60;99.90;;;;;;5054747;28;20209;-45
2022/01/15 05:51:58;;;;;;;35.80;19.40;;;1.50;99.90;;;;;;5060238;28;20419;-47
2022/01/15 05:54:24;;;;;;;31.53;18.00;;;1.50;99.90;;;;;;5053288;28;20186;-48
2022/01/15 05:56:50;;;;;;;33.90;19.43;;;1.50;99.90;;;;;;5053997;28;20255;-48
2022/01/15 05:59:15;;;;;;;31.60;17.50;;;1.60;99.90;;;;;;5056256;28;20182;-49
2022/01/15 06:01:41;;;;;;;30.63;19.10;;;1.60;99.90;;;;;;5058204;28;20257;-45
2022/01/15 06:04:06;;;;;;;30.33;18.77;;;1.70;99.90;;;;;;5050923;28;20189;-50
2022/01/15 06:06:32;;;;;;;32.07;18.20;;;1.60;99.90;;;;;;5056011;28;20210;-45
2022/01/15 06:08:59;;;;;;;37.70;19.67;;;1.60;99.90;;;;;;5056906;28;20190;-45
2022/01/15 06:11:24;;;;;;;35.47;19.80;;;1.60;99.90;;;;;;5051577;28;20188;-47
2022/01/15 06:13:51;;;;;;;31.00;17.03;;;1.60;99.90;;;;;;5054988;28;20443;-52
2022/01/15 06:16:17;;;;;;;32.07;18.30;;;1.60;99.90;;;;;;5055988;28;20214;-45
2022/01/15 06:18:42;;;;;;;33.20;18.27;;;1.70;99.90;;;;;;5051848;28;20413;-47
2022/01/15 06:21:08;;;;;;;29.80;19.20;;;1.80;99.90;;;;;;5056194;28;20211;-45
2022/01/15 06:23:34;;;;;;;35.90;19.20;;;1.70;99.90;;;;;;5057322;28;20187;-45
2022/01/15 06:26:00;;;;;;;29.50;17.43;;;1.80;99.90;;;;;;5056856;28;20283;-46
2022/01/15 06:28:25;;;;;;;30.07;18.77;;;1.90;99.90;;;;;;5056241;28;20881;-46
2022/01/15 06:30:51;;;;;;;35.40;18.97;;;1.80;99.90;;;;;;5054460;28;20193;-49
2022/01/15 06:33:17;;;;;;;38.77;20.90;;;1.80;99.90;;;;;;5054848;28;20251;-48
2022/01/15 06:35:42;;;;;;;34.33;18.80;;;1.70;99.90;;;;;;5041904;28;20552;-44
2022/01/15 06:38:08;;;;;;;33.13;18.67;;;1.70;99.90;;;;;;5039214;28;20184;-47
2022/01/15 06:40:34;;;;;;;34.87;19.20;;;1.80;99.90;;;;;;5056789;28;20714;-48
2022/01/15 06:43:01;;;;;;;32.93;18.33;;;1.90;99.90;;;;;;5053963;28;20503;-51
2022/01/15 06:45:30;;;;;;;30.00;18.27;;;1.80;99.90;;;;;;5054870;28;20511;-47
2022/01/15 06:47:56;;;;;;;37.53;19.30;;;1.90;99.90;;;;;;5050530;28;20436;-47
2022/01/15 06:50:24;;;;;;;32.27;19.10;;;2.00;99.90;;;;;;5050593;28;20451;-47
2022/01/15 06:52:50;;;;;;;31.80;17.97;;;1.90;99.90;;;;;;5054678;28;20828;-47
2022/01/15 06:55:16;;;;;;;32.63;17.90;;;2.00;99.90;;;;;;5052883;28;20541;-48
2022/01/15 06:57:42;;;;;;;34.70;18.63;;;2.10;99.90;;;;;;5052905;28;20540;-45
2022/01/15 07:00:09;;;;;;;37.40;16.80;;;2.00;99.90;;;;;;5051503;28;20464;-46
2022/01/15 07:02:35;;;;;;;34.30;17.60;;;2.10;99.90;;;;;;5050650;28;20631;-46
2022/01/15 07:05:01;;;;;;;34.27;18.60;;;2.10;99.90;;;;;;5052747;28;20822;-51
2022/01/15 07:07:27;;;;;;;31.90;17.70;;;2.10;99.90;;;;;;5056365;28;20449;-49
2022/01/15 07:09:53;;;;;;;33.70;18.50;;;2.20;99.90;;;;;;5054752;28;20457;-49
2022/01/15 07:12:18;;;;;;;34.53;17.90;;;2.20;99.90;;;;;;5060186;28;20515;-45
2022/01/15 07:14:44;;;;;;;31.07;16.80;;;2.30;99.90;;;;;;5050515;28;20212;-47
2022/01/15 07:17:13;;;;;;;33.17;19.27;;;2.10;99.90;;;;;;5053315;28;20206;-47
2022/01/15 07:19:38;;;;;;;33.20;18.10;;;2.20;99.90;;;;;;5057355;28;20193;-47
2022/01/15 07:22:05;;;;;;;30.20;17.00;;;2.10;99.90;;;;;;5055129;28;20431;-46
2022/01/15 07:24:30;;;;;;;33.47;18.03;;;2.00;99.90;;;;;;5057721;28;20189;-46
2022/01/15 07:26:56;;;;;;;33.23;17.60;;;2.00;99.90;;;;;;5057429;28;21173;-49
2022/01/15 07:29:24;;;;;;;31.13;16.50;;;2.10;99.90;;;;;;5054077;28;20181;-50
2022/01/15 07:31:51;;;;;;;28.80;17.87;;;2.10;99.90;;;;;;5057305;28;20281;-45
2022/01/15 07:34:17;;;;;;;33.80;17.87;;;2.30;99.90;;;;;;5055632;28;20422;-47
2022/01/15 07:36:43;;;;;;;33.20;17.27;;;2.20;99.90;;;;;;5056044;28;20456;-44
2022/01/15 07:39:09;;;;;;;30.13;17.70;;;2.30;99.90;;;;;;5056051;28;20275;-48
2022/01/15 07:41:35;;;;;;;31.87;17.93;;;2.30;99.90;;;;;;5054729;28;20228;-45
2022/01/15 07:44:01;;;;;;;30.00;17.23;;;2.30;99.90;;;;;;5062090;28;20872;-46
2022/01/15 07:46:27;;;;;;;30.17;17.70;;;2.30;99.90;;;;;;5056836;28;20819;-46
2022/01/15 07:48:52;;;;;;;31.50;17.53;;;2.30;99.90;;;;;;5054652;28;20268;-48
2022/01/15 07:51:18;;;;;;;31.97;17.37;;;2.40;99.90;;;;;;5057009;28;20421;-51
2022/01/15 07:53:44;;;;;;;30.07;16.03;;;2.40;99.90;;;;;;5061252;28;20177;-49
2022/01/15 07:56:10;;;;;;;25.77;15.93;;;2.50;99.90;;;;;;5055256;28;20453;-48
2022/01/15 07:58:36;;;;;;;29.70;17.33;;;2.50;99.90;;;;;;5054153;28;20472;-47
2022/01/15 08:01:01;;;;;;;29.97;17.60;;;2.60;99.90;;;;;;5057983;28;20191;-46
2022/01/15 08:03:27;;;;;;;29.03;16.13;;;2.50;99.90;;;;;;5054274;28;20191;-48
2022/01/15 08:05:53;;;;;;;28.33;16.87;;;2.60;99.90;;;;;;5055129;28;20284;-46
2022/01/15 08:08:18;;;;;;;23.07;15.77;;;2.60;99.90;;;;;;5043187;28;20191;-49
2022/01/15 08:10:44;;;;;;;32.20;18.67;;;2.60;99.90;;;;;;5053724;28;20181;-48
2022/01/15 08:13:10;;;;;;;24.93;15.60;;;2.70;99.90;;;;;;5058204;28;20684;-49
2022/01/15 08:15:36;;;;;;;32.77;17.23;;;2.70;99.90;;;;;;5057039;28;20215;-50
2022/01/15 08:18:02;;;;;;;29.87;16.27;;;2.70;99.90;;;;;;5055645;28;20445;-49
2022/01/15 08:20:28;;;;;;;22.53;16.20;;;2.70;99.90;;;;;;5054667;28;20187;-49
2022/01/15 08:22:53;;;;;;;28.80;15.23;;;2.70;99.90;;;;;;5058885;28;20756;-48
2022/01/15 08:25:22;;;;;;;29.37;18.20;;;2.70;99.90;;;;;;5052968;28;20873;-47
2022/01/15 08:27:47;;;;;;;25.83;16.60;;;2.60;99.90;;;;;;5055144;28;20181;-50
2022/01/15 08:30:14;;;;;;;29.77;17.30;;;2.70;99.90;;;;;;5056585;28;20726;-51
2022/01/15 08:32:40;;;;;;;24.30;17.00;;;2.60;99.90;;;;;;5056171;28;20693;-46
2022/01/15 08:35:06;;;;;;;27.70;17.27;;;2.50;99.90;;;;;;5058771;28;20418;-48
2022/01/15 08:37:34;;;;;;;36.83;18.80;;;2.50;99.90;;;;;;5055848;28;20441;-50
2022/01/15 08:40:00;;;;;;;31.10;17.47;;;2.60;99.90;;;;;;5055660;28;20519;-50
2022/01/15 08:42:25;;;;;;;23.20;16.17;;;2.60;99.90;;;;;;5057957;28;20442;-50
2022/01/15 08:44:52;;;;;;;28.47;17.13;;;2.70;99.90;;;;;;5060822;28;20865;-50
2022/01/15 08:47:18;;;;;;;28.37;17.50;;;2.70;99.90;;;;;;5057701;28;20243;-49
2022/01/15 08:49:44;;;;;;;29.30;17.00;;;2.70;99.90;;;;;;5060069;28;20506;-46
2022/01/15 08:52:10;;;;;;;29.10;17.60;;;2.70;99.90;;;;;;5053235;28;20449;-48
2022/01/15 08:54:35;;;;;;;31.70;17.67;;;2.70;99.90;;;;;;5053023;28;20476;-46
2022/01/15 08:57:01;;;;;;;30.63;19.27;;;2.60;99.90;;;;;;5057628;28;20210;-52
2022/01/15 08:59:27;;;;;;;28.50;18.43;;;2.50;99.90;;;;;;5057801;28;20194;-48
2022/01/15 09:01:57;;;;;;;28.03;16.80;;;2.80;99.90;;;;;;5054995;28;20929;-46
2022/01/15 09:04:23;;;;;;;30.30;17.60;;;2.80;99.90;;;;;;5056011;28;20170;-53
2022/01/15 09:06:49;;;;;;;29.23;18.70;;;2.80;99.90;;;;;;5059466;28;20436;-47
2022/01/15 09:09:14;;;;;;;33.70;18.97;;;2.70;99.90;;;;;;5054892;28;20262;-48
2022/01/15 09:11:40;;;;;;;29.30;19.63;;;2.70;99.90;;;;;;5056405;28;20437;-51
2022/01/15 09:14:06;;;;;;;39.23;19.73;;;2.80;99.90;;;;;;5054989;28;21625;-48
2022/01/15 09:16:32;;;;;;;31.27;18.37;;;2.80;99.90;;;;;;5056638;28;20541;-50
2022/01/15 09:18:57;;;;;;;35.80;19.90;;;2.80;99.90;;;;;;5056604;28;20894;-49
2022/01/15 09:21:24;;;;;;;36.70;18.70;;;2.90;99.90;;;;;;5054565;28;20949;-50
2022/01/15 09:23:50;;;;;;;31.40;18.40;;;2.90;99.90;;;;;;5056795;28;20205;-48
2022/01/15 09:26:22;;;;;;;32.93;18.13;;;2.90;99.90;;;;;;5055342;28;20467;-48
2022/01/15 09:31:35;;;;;;;31.67;17.70;;;3.10;99.90;;;;;;5057180;28;20420;-48
2022/01/15 09:34:01;;;;;;;33.13;18.47;;;3.10;99.90;;;;;;5053418;28;20444;-49
2022/01/15 09:36:26;;;;;;;34.17;19.40;;;3.00;99.90;;;;;;5055717;28;20471;-51
2022/01/15 09:38:52;;;;;;;36.97;19.77;;;3.10;99.90;;;;;;5041745;28;20455;-49
2022/01/15 09:41:18;;;;;;;37.90;19.10;;;3.10;99.90;;;;;;5052549;28;20202;-48
2022/01/15 09:43:44;;;;;;;37.43;20.27;;;3.20;99.90;;;;;;5053813;28;20182;-48
2022/01/15 09:46:11;;;;;;;30.83;19.20;;;3.20;99.90;;;;;;5038460;28;20483;-47
2022/01/15 09:48:38;;;;;;;32.67;19.67;;;3.10;99.90;;;;;;5053461;28;20203;-50
2022/01/15 09:51:05;;;;;;;32.93;18.63;;;3.10;99.90;;;;;;5036520;28;20433;-47
2022/01/15 09:53:32;;;;;;;36.43;18.63;;;3.10;99.90;;;;;;5056274;28;20448;-46
2022/01/15 09:55:58;;;;;;;30.83;17.77;;;3.10;99.90;;;;;;5055959;28;20457;-47
2022/01/15 09:58:23;;;;;;;40.17;22.57;;;3.10;99.90;;;;;;5054270;28;20438;-45
2022/01/15 10:00:49;;;;;;;37.00;19.83;;;3.10;99.90;;;;;;5059963;28;20195;-47
2022/01/15 10:03:15;;;;;;;30.17;17.03;;;3.20;99.90;;;;;;5055561;28;20191;-47
2022/01/15 10:05:41;;;;;;;35.77;19.57;;;3.40;99.90;;;;;;5056103;28;20592;-47
2022/01/15 10:08:10;;;;;;;31.60;19.03;;;3.50;99.90;;;;;;5045389;28;21032;-48
2022/01/15 10:10:38;;;;;;;33.43;19.37;;;3.30;99.90;;;;;;5056730;28;20433;-47
2022/01/15 10:13:43;;;;;;;32.30;18.90;;;3.50;99.90;;;;;;5057017;28;20410;-51
2022/01/15 10:16:09;;;;;;;29.77;17.80;;;3.40;99.90;;;;;;5016145;28;20465;-47
2022/01/15 10:18:42;;;;;;;40.33;21.20;;;3.30;99.90;;;;;;5059036;28;20987;-46
2022/01/15 10:21:17;;;;;;;32.77;18.80;;;3.50;99.90;;;;;;5057951;28;20185;-51
2022/01/15 10:23:48;;;;;;;31.23;18.17;;;3.50;99.90;;;;;;5051011;28;20930;-46
2022/01/15 10:26:22;;;;;;;32.63;20.13;;;3.60;99.90;;;;;;5052654;28;20885;-47
2022/01/15 10:28:57;;;;;;;32.17;18.47;;;3.50;99.90;;;;;;5053858;28;20794;-52
2022/01/15 10:31:29;;;;;;;38.87;20.00;;;3.50;99.90;;;;;;5053592;28;20425;-49
2022/01/15 10:33:55;;;;;;;32.73;18.73;;;3.60;99.90;;;;;;5055793;28;20436;-49
2022/01/15 10:36:26;;;;;;;36.67;19.33;;;3.70;99.90;;;;;;5034356;28;20449;-48
2022/01/15 10:38:52;;;;;;;29.63;18.33;;;3.70;99.90;;;;;;5056480;28;20425;-48
2022/01/15 10:41:35;;;;;;;33.23;18.70;;;3.70;99.90;;;;;;5055447;28;20429;-51
2022/01/15 10:44:22;;;;;;;33.70;20.50;;;3.70;99.90;;;;;;5053316;28;20871;-48
2022/01/15 10:46:47;;;;;;;29.73;18.13;;;3.80;99.90;;;;;;5053381;28;20473;-47
2022/01/15 10:49:23;;;;;;;30.57;19.50;;;3.80;99.90;;;;;;5055180;28;20872;-48
2022/01/15 10:52:07;;;;;;;40.63;19.83;;;3.80;99.90;;;;;;5053590;28;20269;-49
2022/01/15 10:54:34;;;;;;;39.03;20.60;;;3.80;99.90;;;;;;5055370;28;20433;-47
2022/01/15 10:57:10;;;;;;;32.20;18.93;;;3.90;99.90;;;;;;5053473;28;20504;-49
2022/01/15 10:59:36;;;;;;;37.67;19.97;;;3.90;99.90;;;;;;5055750;28;20447;-45
2022/01/15 11:02:18;;;;;;;31.30;18.93;;;4.00;99.90;;;;;;5055941;28;21023;-47
2022/01/15 11:04:44;;;;;;;34.17;20.37;;;3.90;99.90;;;;;;5057676;28;20502;-47
2022/01/15 11:07:11;;;;;;;39.17;19.67;;;3.90;99.90;;;;;;5056081;28;20911;-45
2022/01/15 11:09:37;;;;;;;34.63;19.20;;;3.80;99.90;;;;;;5059545;28;20422;-45
2022/01/15 11:12:04;;;;;;;40.33;20.00;;;3.90;99.90;;;;;;5059050;28;20944;-48
2022/01/15 11:14:30;;;;;;;38.83;21.37;;;3.90;99.90;;;;;;5058716;28;20206;-49
2022/01/15 11:16:57;;;;;;;33.10;19.73;;;4.00;99.90;;;;;;5055546;28;20452;-47
2022/01/15 11:19:25;;;;;;;39.30;19.83;;;4.10;99.90;;;;;;5050879;28;20460;-48
2022/01/15 11:21:52;;;;;;;38.33;20.60;;;4.10;99.90;;;;;;5058563;28;20798;-50
2022/01/15 11:24:18;;;;;;;39.57;21.43;;;4.00;99.90;;;;;;5059407;28;20533;-47
2022/01/15 11:26:44;;;;;;;36.77;22.23;;;3.90;99.90;;;;;;5054132;28;21084;-46
2022/01/15 11:29:11;;;;;;;38.27;21.90;;;3.80;99.90;;;;;;5060235;28;20531;-49
2022/01/15 11:31:37;;;;;;;30.77;19.40;;;3.90;99.90;;;;;;5063444;28;20402;-49
2022/01/15 11:34:05;;;;;;;40.50;21.63;;;4.00;99.90;;;;;;5056870;28;20437;-47
2022/01/15 11:36:44;;;;;;;40.00;21.67;;;4.10;99.90;;;;;;5057071;28;20821;-45
2022/01/15 11:39:12;;;;;;;33.83;20.13;;;4.20;99.90;;;;;;5059168;28;20886;-49
2022/01/15 11:41:40;;;;;;;35.80;21.60;;;4.10;99.90;;;;;;5060151;28;20429;-48
2022/01/15 11:44:29;;;;;;;43.73;23.13;;;4.00;99.90;;;;;;5056203;28;20434;-49
2022/01/15 11:46:57;;;;;;;38.57;23.13;;;4.10;99.90;;;;;;5041392;28;20472;-49
2022/01/15 11:49:28;;;;;;;40.70;21.83;;;4.10;99.90;;;;;;5056613;28;20504;-50
2022/01/15 11:51:55;;;;;;;39.90;22.60;;;4.10;99.90;;;;;;5055134;28;20410;-50
2022/01/15 11:54:22;;;;;;;41.77;23.37;;;4.20;99.90;;;;;;5056468;28;20506;-48
2022/01/15 11:56:48;;;;;;;41.97;22.60;;;4.30;99.90;;;;;;5058972;28;20489;-48
2022/01/15 11:59:23;;;;;;;38.07;21.27;;;4.40;99.90;;;;;;5059515;28;20981;-50
2022/01/15 12:01:50;;;;;;;43.13;23.23;;;4.30;99.90;;;;;;5058928;28;20417;-46
2022/01/15 12:04:25;;;;;;;40.70;24.73;;;4.40;99.90;;;;;;5055228;28;20433;-51
2022/01/15 12:07:00;;;;;;;36.87;21.60;;;4.40;99.90;;;;;;5059149;28;20467;-49
2022/01/15 12:09:35;;;;;;;36.10;21.40;;;4.40;99.90;;;;;;5053224;28;20448;-50
2022/01/15 12:14:51;;;;;;;43.70;23.20;;;4.40;99.90;;;;;;5055476;28;20483;-49
2022/01/15 12:17:31;;;;;;;39.73;22.73;;;4.40;99.90;;;;;;5058515;28;20478;-45
2022/01/15 12:20:04;;;;;;;42.87;23.30;;;4.40;99.90;;;;;;5058494;28;20736;-49
2022/01/15 12:22:42;;;;;;;43.03;21.97;;;4.40;99.90;;;;;;5054195;28;20866;-47
2022/01/15 12:25:32;;;;;;;44.60;22.33;;;4.60;99.90;;;;;;5057028;28;20454;-49
2022/01/15 12:28:03;;;;;;;38.40;21.93;;;4.70;99.90;;;;;;5048377;28;20839;-50
2022/01/15 12:30:40;;;;;;;37.47;21.83;;;4.70;99.90;;;;;;5056824;28;20438;-52
2022/01/15 12:33:07;;;;;;;35.40;21.40;;;4.80;99.90;;;;;;5057222;28;21161;-50
2022/01/15 12:35:35;;;;;;;39.23;21.90;;;4.80;99.90;;;;;;5059453;28;20985;-52
2022/01/15 12:38:05;;;;;;;42.77;23.60;;;4.70;99.90;;;;;;5053750;28;20866;-49
2022/01/15 12:40:39;;;;;;;42.90;21.90;;;4.70;99.90;;;;;;5059304;28;20429;-53
2022/01/15 12:43:44;;;;;;;38.87;21.60;;;4.80;99.90;;;;;;5057138;28;20460;-50
2022/01/15 12:46:16;;;;;;;46.50;24.43;;;4.80;99.90;;;;;;4965198;28;20516;-51
2022/01/15 12:48:44;;;;;;;47.13;23.97;;;4.50;99.90;;;;;;4962815;28;20766;-52
2022/01/15 12:51:15;;;;;;;42.70;23.13;;;4.50;99.90;;;;;;5012142;28;20421;-48
2022/01/15 12:53:47;;;;;;;39.53;22.43;;;4.70;99.90;;;;;;5057367;28;20521;-50
2022/01/15 12:56:18;;;;;;;43.07;23.87;;;4.50;99.90;;;;;;5059148;28;20547;-50
2022/01/15 12:58:43;;;;;;;40.70;23.60;;;4.50;99.90;;;;;;5060869;28;20416;-52
2022/01/15 13:01:10;;;;;;;39.27;23.53;;;4.70;99.90;;;;;;5036945;28;20437;-50
2022/01/15 13:03:39;;;;;;;40.77;23.80;;;4.60;99.90;;;;;;5055273;28;20187;-52